Time;durP1;ratioP1;P1;durP2;ratioP2;P2;SDS_P1;SDS_P2;PMS_P1;PMS_P2;Temp;Humidity;BMP_temperature;BMP_pressure;BME280_temperature;BME280_humidity;BME280_pressure;Samples;Min_cycle;Max_cycle;Signal;HPM_P1;HPM_P2
2021/05/09 00:01:25;;;;;;;6.27;5.90;;;24.00;68.00;;;;;;3545320;40;20891;-48
2021/05/09 00:03:53;;;;;;;6.33;6.10;;;24.00;67.90;;;;;;3555519;40;20501;-48
2021/05/09 00:06:21;;;;;;;7.37;6.67;;;24.00;68.00;;;;;;3554041;40;20496;-48
2021/05/09 00:08:47;;;;;;;6.70;6.30;;;24.00;67.90;;;;;;3555499;40;20690;-48
2021/05/09 00:11:14;;;;;;;6.20;6.00;;;24.00;67.90;;;;;;3553307;40;20493;-48
2021/05/09 00:13:42;;;;;;;5.77;5.57;;;24.00;68.00;;;;;;3553451;40;20717;-48
2021/05/09 00:16:10;;;;;;;6.15;5.88;;;24.00;68.00;;;;;;3553482;40;20484;-48
2021/05/09 00:18:36;;;;;;;7.00;6.70;;;24.00;68.00;;;;;;3554722;40;20410;-48
2021/05/09 00:21:03;;;;;;;7.20;6.83;;;24.00;67.90;;;;;;3552311;40;20475;-48
2021/05/09 00:23:31;;;;;;;6.30;6.00;;;24.10;68.00;;;;;;3544762;40;20483;-48
2021/05/09 00:26:07;;;;;;;6.40;6.10;;;24.00;67.80;;;;;;3554244;40;20827;-48
2021/05/09 00:28:34;;;;;;;6.53;6.23;;;24.00;67.90;;;;;;3554215;40;20487;-48
2021/05/09 00:31:00;;;;;;;6.60;6.33;;;24.00;67.80;;;;;;3555074;40;20506;-49
2021/05/09 00:33:28;;;;;;;6.40;6.10;;;24.00;67.80;;;;;;3554424;40;20758;-49
2021/05/09 00:36:12;;;;;;;6.33;6.03;;;24.10;68.00;;;;;;3547513;40;20843;-50
2021/05/09 00:38:38;;;;;;;7.07;6.77;;;24.10;68.00;;;;;;3547136;40;20477;-48
2021/05/09 00:41:05;;;;;;;7.40;6.90;;;24.10;68.00;;;;;;3555372;40;21052;-48
2021/05/09 00:43:32;;;;;;;6.27;6.07;;;24.10;68.00;;;;;;3555993;40;20502;-49
2021/05/09 00:45:58;;;;;;;6.00;5.80;;;24.10;67.90;;;;;;3554102;40;20979;-48
2021/05/09 00:48:37;;;;;;;6.40;6.10;;;24.10;67.90;;;;;;3555668;40;20487;-48
2021/05/09 00:51:04;;;;;;;6.53;6.23;;;24.10;68.60;;;;;;3555121;40;20550;-48
2021/05/09 00:53:31;;;;;;;6.70;6.40;;;24.10;67.90;;;;;;3554121;40;20491;-48
2021/05/09 00:56:01;;;;;;;6.60;6.30;;;24.10;67.90;;;;;;3554029;40;20683;-48
2021/05/09 00:58:30;;;;;;;6.00;5.80;;;24.10;67.90;;;;;;3555052;40;20512;-48
2021/05/09 01:00:57;;;;;;;6.83;6.53;;;24.10;67.90;;;;;;3554493;40;20768;-48
2021/05/09 01:03:27;;;;;;;6.70;6.40;;;24.10;67.90;;;;;;3553405;40;20487;-48
2021/05/09 01:05:57;;;;;;;6.40;6.20;;;24.10;67.90;;;;;;3554239;40;20490;-49
2021/05/09 01:08:25;;;;;;;6.43;6.10;;;24.10;67.80;;;;;;3544818;40;20486;-48
2021/05/09 01:10:52;;;;;;;6.93;6.63;;;24.10;67.80;;;;;;3552745;40;20496;-48
2021/05/09 01:13:21;;;;;;;6.50;6.20;;;24.10;68.00;;;;;;3554225;40;21505;-48
2021/05/09 01:15:48;;;;;;;6.40;6.20;;;24.10;67.80;;;;;;3553226;40;20506;-48
2021/05/09 01:18:15;;;;;;;6.33;6.13;;;24.10;67.70;;;;;;3554624;40;20821;-48
2021/05/09 01:20:42;;;;;;;7.38;6.97;;;24.20;67.80;;;;;;3543883;40;20480;-49
2021/05/09 01:23:09;;;;;;;6.53;6.20;;;24.20;67.80;;;;;;3554524;40;20230;-48
2021/05/09 01:25:36;;;;;;;6.30;6.10;;;24.20;67.90;;;;;;3554094;40;20468;-48
2021/05/09 01:28:03;;;;;;;6.57;6.38;;;24.20;67.80;;;;;;3553467;40;20810;-48
2021/05/09 01:30:30;;;;;;;6.90;6.50;;;24.20;67.80;;;;;;3544849;40;20311;-48
2021/05/09 01:32:56;;;;;;;6.60;6.30;;;24.20;67.80;;;;;;3543752;40;20475;-48
2021/05/09 01:35:23;;;;;;;6.50;6.30;;;24.20;67.70;;;;;;3553587;40;20491;-50
2021/05/09 01:37:51;;;;;;;6.57;6.27;;;24.20;67.80;;;;;;3552828;40;20842;-48
2021/05/09 01:40:17;;;;;;;6.63;6.33;;;24.20;67.80;;;;;;3552560;40;20604;-48
2021/05/09 01:42:44;;;;;;;6.63;6.33;;;24.20;67.80;;;;;;3553583;40;20957;-48
2021/05/09 01:45:13;;;;;;;6.47;6.13;;;24.20;67.80;;;;;;3546024;40;20667;-49
2021/05/09 01:47:41;;;;;;;6.73;6.33;;;24.20;67.80;;;;;;3556774;40;20489;-49
2021/05/09 01:50:11;;;;;;;6.60;6.30;;;24.20;67.80;;;;;;3555796;40;20871;-48
2021/05/09 01:52:38;;;;;;;6.60;6.40;;;24.20;67.70;;;;;;3546729;40;20517;-48
2021/05/09 01:55:09;;;;;;;6.90;6.60;;;24.20;67.70;;;;;;3555246;40;20482;-48
2021/05/09 01:57:38;;;;;;;6.90;6.60;;;24.20;67.80;;;;;;3545911;40;20880;-48
2021/05/09 02:00:10;;;;;;;6.17;5.97;;;24.20;67.80;;;;;;3545721;40;20510;-49
2021/05/09 02:02:45;;;;;;;7.57;7.17;;;24.20;67.80;;;;;;3555868;40;20498;-48
2021/05/09 02:05:18;;;;;;;6.90;6.60;;;24.20;67.80;;;;;;3546117;40;20481;-48
2021/05/09 02:07:46;;;;;;;6.90;6.60;;;24.20;67.80;;;;;;3546663;40;20482;-49
2021/05/09 02:10:13;;;;;;;6.60;6.30;;;24.20;67.80;;;;;;3545920;40;20526;-48
2021/05/09 02:12:43;;;;;;;7.40;7.10;;;24.20;67.80;;;;;;3545925;40;20580;-49
2021/05/09 02:15:28;;;;;;;7.07;6.68;;;24.20;67.80;;;;;;3555675;40;20480;-48
2021/05/09 02:17:55;;;;;;;6.70;6.40;;;24.20;67.80;;;;;;3546006;40;20309;-50
2021/05/09 02:20:25;;;;;;;6.53;6.33;;;24.30;67.80;;;;;;3544616;40;20493;-48
2021/05/09 02:22:53;;;;;;;6.73;6.43;;;24.30;67.80;;;;;;3545667;40;20478;-48
2021/05/09 02:25:21;;;;;;;6.83;6.53;;;24.30;67.80;;;;;;3553759;40;20596;-48
2021/05/09 02:27:51;;;;;;;6.30;6.10;;;24.30;67.80;;;;;;3544841;40;20483;-48
2021/05/09 02:30:18;;;;;;;6.50;6.20;;;24.30;67.80;;;;;;3554548;40;20576;-48
2021/05/09 02:32:46;;;;;;;6.80;6.40;;;24.30;67.70;;;;;;3538172;40;20879;-48
2021/05/09 02:35:13;;;;;;;6.10;5.90;;;24.30;67.80;;;;;;3547065;40;20516;-48
2021/05/09 02:37:39;;;;;;;6.80;6.50;;;24.30;67.70;;;;;;3554539;40;20796;-48
2021/05/09 02:40:07;;;;;;;6.23;6.03;;;24.30;67.70;;;;;;3546620;40;20771;-49
2021/05/09 02:42:35;;;;;;;6.60;6.40;;;24.30;67.80;;;;;;3555204;40;20487;-48
2021/05/09 02:45:04;;;;;;;6.40;6.20;;;24.30;67.70;;;;;;3555670;40;20499;-48
2021/05/09 02:47:32;;;;;;;6.17;5.97;;;24.30;67.70;;;;;;3546486;40;20534;-48
2021/05/09 02:50:07;;;;;;;6.90;6.70;;;24.30;67.70;;;;;;3546519;40;20764;-48
2021/05/09 02:52:35;;;;;;;6.67;6.37;;;24.30;67.70;;;;;;3545440;40;20561;-48
2021/05/09 02:55:02;;;;;;;6.77;6.50;;;24.30;67.70;;;;;;3554646;40;20778;-48
2021/05/09 02:57:29;;;;;;;6.20;6.00;;;24.30;67.70;;;;;;3545632;40;20729;-48
2021/05/09 02:59:57;;;;;;;6.43;6.23;;;24.30;67.70;;;;;;3554893;40;20486;-48
2021/05/09 03:02:24;;;;;;;6.33;6.07;;;24.30;67.60;;;;;;3544487;40;20574;-48
2021/05/09 03:04:51;;;;;;;6.73;6.53;;;24.40;67.70;;;;;;3556325;40;20488;-48
2021/05/09 03:07:17;;;;;;;7.20;6.80;;;24.40;67.70;;;;;;3556396;40;20482;-48
2021/05/09 03:09:44;;;;;;;7.43;6.93;;;24.30;67.60;;;;;;3554614;40;20483;-48
2021/05/09 03:12:11;;;;;;;7.23;6.93;;;24.30;67.60;;;;;;3545904;40;20498;-48
2021/05/09 03:14:37;;;;;;;6.97;6.68;;;24.40;67.70;;;;;;3555563;40;20685;-49
2021/05/09 03:17:07;;;;;;;6.67;6.37;;;24.40;67.80;;;;;;3544194;40;20243;-48
2021/05/09 03:19:34;;;;;;;6.70;6.50;;;24.40;67.70;;;;;;3553427;40;20562;-48
2021/05/09 03:22:01;;;;;;;7.10;6.80;;;24.40;67.70;;;;;;3554159;40;20484;-49
2021/05/09 03:24:27;;;;;;;6.95;6.65;;;24.40;68.50;;;;;;3554758;40;20422;-48
2021/05/09 03:26:54;;;;;;;7.10;6.80;;;24.40;67.70;;;;;;3554172;40;20406;-48
2021/05/09 03:29:20;;;;;;;7.60;7.28;;;24.40;67.70;;;;;;3553900;40;20773;-48
2021/05/09 03:31:47;;;;;;;7.40;7.10;;;24.40;67.70;;;;;;3553039;40;20476;-48
2021/05/09 03:34:16;;;;;;;7.03;6.70;;;24.40;67.60;;;;;;3554388;40;20669;-50
2021/05/09 03:36:43;;;;;;;6.97;6.77;;;24.40;67.50;;;;;;3553992;40;20499;-48
2021/05/09 03:39:09;;;;;;;7.33;7.03;;;24.40;67.50;;;;;;3554696;40;20953;-48
2021/05/09 03:41:36;;;;;;;6.75;6.45;;;24.40;67.60;;;;;;3553675;40;20575;-48
2021/05/09 03:44:06;;;;;;;6.73;6.53;;;24.40;67.60;;;;;;3554003;40;20241;-48
2021/05/09 03:46:33;;;;;;;6.70;6.50;;;24.40;67.60;;;;;;3554102;40;20499;-48
2021/05/09 03:48:59;;;;;;;6.83;6.63;;;24.40;67.50;;;;;;3554844;40;20966;-48
2021/05/09 03:51:27;;;;;;;7.07;6.80;;;24.40;67.50;;;;;;3546023;40;20745;-48
2021/05/09 03:53:53;;;;;;;6.90;6.60;;;24.40;67.50;;;;;;3554375;40;20629;-48
2021/05/09 03:56:20;;;;;;;7.17;6.90;;;24.50;67.60;;;;;;3554919;40;20504;-48
2021/05/09 03:58:46;;;;;;;7.13;6.82;;;24.50;67.60;;;;;;3555050;40;20501;-48
2021/05/09 04:01:13;;;;;;;7.33;7.03;;;24.50;67.60;;;;;;3554574;40;20303;-49
2021/05/09 04:03:39;;;;;;;7.40;7.10;;;24.50;67.60;;;;;;3544288;40;20492;-49
2021/05/09 04:06:06;;;;;;;7.17;6.87;;;24.50;67.50;;;;;;3553112;40;20702;-49
2021/05/09 04:08:34;;;;;;;6.70;6.40;;;24.60;67.50;;;;;;3552961;40;20515;-49
2021/05/09 04:11:01;;;;;;;7.10;6.80;;;24.60;67.50;;;;;;3544704;40;20497;-49
2021/05/09 04:13:27;;;;;;;7.20;6.90;;;24.60;67.50;;;;;;3554995;40;20488;-49
2021/05/09 04:15:54;;;;;;;7.27;6.97;;;24.60;67.50;;;;;;3554488;40;20565;-50
2021/05/09 04:18:21;;;;;;;7.10;6.80;;;24.60;67.50;;;;;;3552818;40;20486;-50
2021/05/09 04:20:47;;;;;;;7.10;6.80;;;24.60;67.50;;;;;;3542564;40;20761;-49
2021/05/09 04:23:16;;;;;;;7.30;7.00;;;24.60;67.50;;;;;;3543945;40;20478;-49
2021/05/09 04:25:49;;;;;;;6.67;6.47;;;24.60;67.50;;;;;;3554348;40;20483;-49
2021/05/09 04:28:16;;;;;;;7.40;7.10;;;24.60;67.50;;;;;;3554585;40;20685;-49
2021/05/09 04:30:42;;;;;;;7.30;7.10;;;24.60;67.50;;;;;;3544882;40;20483;-48
2021/05/09 04:33:09;;;;;;;7.60;7.20;;;24.60;67.50;;;;;;3553874;40;20845;-48
2021/05/09 04:35:37;;;;;;;7.83;7.37;;;24.60;67.30;;;;;;3553205;40;20499;-48
2021/05/09 04:38:05;;;;;;;7.30;7.00;;;24.70;67.50;;;;;;3553574;40;20482;-49
2021/05/09 04:40:32;;;;;;;6.77;6.57;;;24.70;67.50;;;;;;3554380;40;20481;-49
2021/05/09 04:43:06;;;;;;;7.40;7.10;;;24.70;67.40;;;;;;3545281;40;20499;-48
2021/05/09 04:45:33;;;;;;;7.53;7.23;;;24.70;67.50;;;;;;3546047;40;20223;-49
2021/05/09 04:48:00;;;;;;;7.27;6.97;;;24.70;67.40;;;;;;3546198;40;20601;-48
2021/05/09 04:50:27;;;;;;;6.67;6.47;;;24.70;67.40;;;;;;3555037;40;20486;-48
2021/05/09 04:52:54;;;;;;;7.60;7.30;;;24.70;67.30;;;;;;3554895;40;20581;-49
2021/05/09 04:55:20;;;;;;;7.57;7.27;;;24.80;67.40;;;;;;3545258;40;20476;-49
2021/05/09 04:57:47;;;;;;;6.97;6.67;;;24.80;67.30;;;;;;3553117;40;20482;-48
2021/05/09 05:00:16;;;;;;;6.90;6.70;;;24.80;67.30;;;;;;3552986;40;20833;-49
2021/05/09 05:02:43;;;;;;;7.93;7.63;;;24.80;67.30;;;;;;3554226;40;20474;-49
2021/05/09 05:05:10;;;;;;;7.47;7.17;;;24.80;67.30;;;;;;3554164;40;20492;-48
2021/05/09 05:07:37;;;;;;;7.50;7.10;;;24.80;67.30;;;;;;3554326;40;20560;-48
2021/05/09 05:10:05;;;;;;;7.55;7.25;;;24.80;67.30;;;;;;3553180;40;20479;-48
2021/05/09 05:12:31;;;;;;;7.30;7.00;;;24.90;67.30;;;;;;3554077;40;20260;-48
2021/05/09 05:14:58;;;;;;;7.83;7.53;;;24.90;67.30;;;;;;3553014;40;20700;-48
2021/05/09 05:17:26;;;;;;;7.23;6.93;;;24.90;67.20;;;;;;3554349;40;20488;-48
2021/05/09 05:19:52;;;;;;;8.10;7.70;;;24.90;67.20;;;;;;3552878;40;20491;-48
2021/05/09 05:22:19;;;;;;;7.30;7.00;;;24.90;67.20;;;;;;3555878;40;20487;-49
2021/05/09 05:24:45;;;;;;;6.80;6.50;;;24.90;67.20;;;;;;3556026;40;20487;-48
2021/05/09 05:27:12;;;;;;;6.87;6.67;;;24.90;67.20;;;;;;3546445;40;20539;-49
2021/05/09 05:29:38;;;;;;;6.80;6.50;;;24.90;67.20;;;;;;3555893;40;20915;-50
2021/05/09 05:32:06;;;;;;;6.70;6.50;;;24.90;67.20;;;;;;3553780;40;20485;-48
2021/05/09 05:34:33;;;;;;;7.70;7.30;;;24.90;67.30;;;;;;3546366;40;20791;-48
2021/05/09 05:37:00;;;;;;;6.67;6.47;;;24.90;67.30;;;;;;3554125;40;20575;-48
2021/05/09 05:39:27;;;;;;;7.53;7.20;;;24.90;67.40;;;;;;3554766;40;20956;-49
2021/05/09 05:41:53;;;;;;;7.40;7.10;;;24.80;67.30;;;;;;3555771;40;20713;-49
2021/05/09 05:44:20;;;;;;;7.30;7.00;;;24.80;67.30;;;;;;3554245;40;20560;-48
2021/05/09 05:46:47;;;;;;;7.23;6.93;;;24.80;67.30;;;;;;3546276;40;20485;-49
2021/05/09 05:49:13;;;;;;;7.03;6.83;;;24.80;67.30;;;;;;3554453;40;20593;-48
2021/05/09 05:51:40;;;;;;;7.50;7.03;;;24.80;67.40;;;;;;3553987;40;20866;-48
2021/05/09 05:54:07;;;;;;;7.30;7.00;;;24.80;67.40;;;;;;3554994;40;20501;-48
2021/05/09 05:56:34;;;;;;;6.73;6.50;;;24.80;67.50;;;;;;3554184;40;20748;-48
2021/05/09 05:59:00;;;;;;;7.03;6.77;;;24.80;68.30;;;;;;3553779;40;20508;-49
2021/05/09 06:01:27;;;;;;;7.53;7.20;;;24.80;67.60;;;;;;3553883;40;20486;-48
2021/05/09 06:03:53;;;;;;;6.83;6.63;;;24.80;67.60;;;;;;3554709;40;20850;-48
2021/05/09 06:06:20;;;;;;;7.10;6.80;;;24.70;68.30;;;;;;3553558;40;20524;-48
2021/05/09 06:08:50;;;;;;;6.57;6.37;;;24.70;67.60;;;;;;3553316;40;20500;-48
2021/05/09 06:11:17;;;;;;;6.50;6.30;;;24.70;67.70;;;;;;3553325;40;20845;-48
2021/05/09 06:13:44;;;;;;;6.60;6.40;;;24.70;67.70;;;;;;3554323;40;20557;-48
2021/05/09 06:16:10;;;;;;;6.50;6.30;;;24.70;67.80;;;;;;3552910;40;20801;-48
2021/05/09 06:18:37;;;;;;;7.33;7.00;;;24.70;67.80;;;;;;3553493;40;20572;-48
2021/05/09 06:21:04;;;;;;;7.23;6.83;;;24.60;62.20;;;;;;3552121;40;20746;-48
2021/05/09 06:23:31;;;;;;;9.17;8.37;;;24.50;60.70;;;;;;3553317;40;20484;-48
2021/05/09 06:25:58;;;;;;;7.00;6.60;;;24.30;60.40;;;;;;3554339;40;20721;-48
2021/05/09 06:28:24;;;;;;;7.30;6.97;;;24.20;62.40;;;;;;3553690;40;20573;-48
2021/05/09 06:30:51;;;;;;;7.93;7.33;;;24.20;60.50;;;;;;3554215;40;20482;-48
2021/05/09 06:33:18;;;;;;;7.80;7.40;;;24.10;61.90;;;;;;3554045;40;20479;-48
2021/05/09 06:35:45;;;;;;;8.10;7.50;;;24.00;60.80;;;;;;3553191;40;20494;-48
2021/05/09 06:38:11;;;;;;;7.40;6.90;;;24.00;62.60;;;;;;3551938;40;20505;-48
2021/05/09 06:40:38;;;;;;;8.03;7.43;;;24.00;62.40;;;;;;3551958;40;20496;-48
2021/05/09 06:43:07;;;;;;;7.47;7.17;;;24.00;62.70;;;;;;3553683;40;20886;-48
2021/05/09 06:45:34;;;;;;;6.90;6.60;;;24.00;62.70;;;;;;3554624;40;20794;-48
2021/05/09 06:48:03;;;;;;;7.87;7.37;;;24.00;62.50;;;;;;3553823;40;20731;-49
2021/05/09 06:50:32;;;;;;;7.60;7.20;;;23.90;62.50;;;;;;3553539;40;20478;-48
2021/05/09 06:52:59;;;;;;;7.10;6.83;;;23.90;63.20;;;;;;3552587;40;20767;-48
2021/05/09 06:55:26;;;;;;;7.20;6.60;;;23.90;63.70;;;;;;3553147;40;20501;-49
2021/05/09 06:57:53;;;;;;;7.30;7.00;;;23.90;64.00;;;;;;3553449;40;20895;-48
2021/05/09 07:00:21;;;;;;;7.00;6.70;;;23.90;64.50;;;;;;3553561;40;21036;-49
2021/05/09 07:02:47;;;;;;;6.60;6.30;;;24.00;64.90;;;;;;3552304;40;20523;-49
2021/05/09 07:05:15;;;;;;;6.73;6.43;;;24.00;65.00;;;;;;3552725;40;20498;-48
2021/05/09 07:07:49;;;;;;;7.67;7.17;;;24.00;64.60;;;;;;3551846;40;20835;-48
2021/05/09 07:10:16;;;;;;;7.00;6.63;;;24.00;64.80;;;;;;3552340;40;20880;-48
2021/05/09 07:12:43;;;;;;;6.70;6.45;;;24.10;64.80;;;;;;3552938;40;20736;-48
2021/05/09 07:15:11;;;;;;;6.07;5.87;;;24.10;64.70;;;;;;3552929;40;20329;-48
2021/05/09 07:17:39;;;;;;;6.33;6.03;;;24.10;64.90;;;;;;3552690;40;20891;-48
2021/05/09 07:20:07;;;;;;;6.57;6.20;;;24.10;65.00;;;;;;3551191;40;20584;-48
2021/05/09 07:22:37;;;;;;;7.20;6.50;;;24.20;65.20;;;;;;3551642;40;20482;-48
2021/05/09 07:25:05;;;;;;;8.57;7.10;;;24.20;65.30;;;;;;3551347;40;20734;-48
2021/05/09 07:27:31;;;;;;;7.37;6.93;;;24.20;65.40;;;;;;3551555;40;20487;-48
2021/05/09 07:30:01;;;;;;;6.17;5.93;;;24.20;65.50;;;;;;3551805;40;20806;-48
2021/05/09 07:32:27;;;;;;;6.30;6.00;;;24.30;65.70;;;;;;3551837;40;20717;-49
2021/05/09 07:34:55;;;;;;;5.53;5.33;;;24.30;65.30;;;;;;3553204;40;20569;-48
2021/05/09 07:37:22;;;;;;;6.17;5.83;;;24.30;64.00;;;;;;3553359;40;20932;-48
2021/05/09 07:39:48;;;;;;;7.93;7.32;;;24.30;63.90;;;;;;3552777;40;20547;-49
2021/05/09 07:42:14;;;;;;;7.90;6.83;;;24.30;63.60;;;;;;3550157;40;20399;-48
2021/05/09 07:44:41;;;;;;;7.07;6.32;;;24.30;63.40;;;;;;3552714;40;20681;-48
2021/05/09 07:47:08;;;;;;;6.13;5.93;;;24.30;63.00;;;;;;3551447;40;20233;-48
2021/05/09 07:49:36;;;;;;;6.20;5.80;;;24.40;62.60;;;;;;3551601;40;20494;-51
2021/05/09 07:52:04;;;;;;;5.90;5.70;;;24.40;62.10;;;;;;3550562;40;20478;-50
2021/05/09 07:54:31;;;;;;;5.60;5.40;;;24.40;61.00;;;;;;3563175;40;20840;-50
2021/05/09 07:56:58;;;;;;;6.47;6.07;;;24.30;59.90;;;;;;3552970;40;20853;-48
2021/05/09 07:59:24;;;;;;;6.07;5.87;;;24.30;59.40;;;;;;3561480;40;20490;-49
2021/05/09 08:01:51;;;;;;;5.73;5.53;;;24.30;59.20;;;;;;3560936;40;20496;-49
2021/05/09 08:04:17;;;;;;;5.70;5.40;;;24.30;58.70;;;;;;3560992;40;20493;-50
2021/05/09 08:06:45;;;;;;;5.87;5.67;;;24.30;58.30;;;;;;3559201;40;20492;-49
2021/05/09 08:09:13;;;;;;;5.80;5.60;;;24.30;57.90;;;;;;3560876;40;20770;-49
2021/05/09 08:11:40;;;;;;;6.30;5.90;;;24.30;57.60;;;;;;3561931;40;20579;-49
2021/05/09 08:14:06;;;;;;;6.80;6.37;;;24.30;57.60;;;;;;3562796;40;20920;-49
2021/05/09 08:16:33;;;;;;;6.37;6.07;;;24.30;57.90;;;;;;3562991;40;20770;-49
2021/05/09 08:19:00;;;;;;;6.30;6.10;;;24.30;57.60;;;;;;3561437;40;20920;-49
2021/05/09 08:21:26;;;;;;;5.90;5.70;;;24.30;57.70;;;;;;3562660;40;20500;-51
2021/05/09 08:23:53;;;;;;;5.97;5.57;;;24.30;57.70;;;;;;3555356;40;20820;-50
2021/05/09 08:26:21;;;;;;;5.80;5.60;;;24.30;57.90;;;;;;3554342;40;20494;-49
2021/05/09 08:28:47;;;;;;;5.80;5.70;;;24.40;57.80;;;;;;3554371;40;20502;-49
2021/05/09 08:31:16;;;;;;;5.73;5.60;;;24.40;57.90;;;;;;3554637;40;20475;-49
2021/05/09 08:33:43;;;;;;;5.65;5.45;;;24.40;57.50;;;;;;3554053;40;20514;-51
2021/05/09 08:36:10;;;;;;;5.80;5.60;;;24.40;57.70;;;;;;3553630;40;20278;-49
2021/05/09 08:38:37;;;;;;;5.87;5.67;;;24.40;57.70;;;;;;3554790;40;20701;-49
2021/05/09 08:41:03;;;;;;;5.90;5.70;;;24.40;57.40;;;;;;3554039;40;20479;-49
2021/05/09 08:43:30;;;;;;;5.80;5.60;;;24.40;57.30;;;;;;3554929;40;20716;-50
2021/05/09 08:45:57;;;;;;;5.70;5.47;;;24.40;57.10;;;;;;3554652;40;20483;-49
2021/05/09 08:48:26;;;;;;;5.70;5.40;;;24.40;57.20;;;;;;3554686;40;20560;-49
2021/05/09 08:50:53;;;;;;;5.70;5.50;;;24.40;57.00;;;;;;3548380;40;20479;-49
2021/05/09 08:53:20;;;;;;;6.10;5.70;;;24.40;57.10;;;;;;3562779;40;20493;-49
2021/05/09 08:55:48;;;;;;;6.07;5.77;;;24.40;57.40;;;;;;3563575;40;20496;-49
2021/05/09 08:58:15;;;;;;;7.17;6.63;;;24.40;58.00;;;;;;3563997;40;20529;-50
2021/05/09 09:00:43;;;;;;;7.50;6.23;;;24.40;58.50;;;;;;3554265;40;20486;-49
2021/05/09 09:03:12;;;;;;;9.70;6.70;;;24.40;59.20;;;;;;3563004;40;20494;-50
2021/05/09 09:05:41;;;;;;;8.57;7.90;;;24.30;59.60;;;;;;3563582;40;20236;-51
2021/05/09 09:08:12;;;;;;;7.50;7.00;;;24.30;60.00;;;;;;3563138;40;20492;-49
2021/05/09 09:10:45;;;;;;;8.80;6.70;;;24.30;60.60;;;;;;3561983;40;20883;-49
2021/05/09 09:16:13;;;;;;;7.80;7.13;;;24.30;61.30;;;;;;3887471;23;20768;-49
2021/05/09 09:18:41;;;;;;;8.87;7.87;;;24.30;61.70;;;;;;3552000;40;20886;-49
2021/05/09 09:21:22;;;;;;;8.17;7.50;;;24.30;62.10;;;;;;3550974;40;20689;-49
2021/05/09 09:23:50;;;;;;;9.18;7.85;;;24.30;62.60;;;;;;3552121;40;20541;-49
2021/05/09 09:26:33;;;;;;;8.27;7.57;;;24.30;63.00;;;;;;3552230;40;20255;-49
2021/05/09 09:29:00;;;;;;;9.65;7.85;;;24.20;63.10;;;;;;3550809;40;20489;-50
2021/05/09 09:31:39;;;;;;;15.37;8.23;;;24.20;63.40;;;;;;3550215;40;20314;-49
2021/05/09 09:34:06;;;;;;;9.30;7.30;;;24.20;63.50;;;;;;3550407;40;20685;-49
2021/05/09 09:36:32;;;;;;;8.03;7.43;;;24.20;63.60;;;;;;3550838;40;20652;-50
2021/05/09 09:38:59;;;;;;;8.90;7.53;;;24.20;63.70;;;;;;3551467;40;20506;-49
2021/05/09 09:41:26;;;;;;;8.43;7.63;;;24.20;63.70;;;;;;3551650;40;20239;-49
2021/05/09 09:44:04;;;;;;;10.20;7.23;;;24.20;63.90;;;;;;3550118;40;20567;-49
2021/05/09 09:46:33;;;;;;;8.50;7.80;;;24.20;64.60;;;;;;3542120;40;20506;-49
2021/05/09 09:49:03;;;;;;;8.23;7.40;;;24.20;64.00;;;;;;3550270;40;20535;-49
2021/05/09 09:51:30;;;;;;;10.83;7.57;;;24.20;64.10;;;;;;3549842;40;20571;-49
2021/05/09 09:53:57;;;;;;;7.50;6.90;;;24.20;64.30;;;;;;3550290;40;21042;-50
2021/05/09 09:56:25;;;;;;;8.27;7.50;;;24.20;64.40;;;;;;3550818;40;20498;-49
2021/05/09 09:58:54;;;;;;;14.57;7.40;;;24.20;64.50;;;;;;3550379;40;20716;-50
2021/05/09 10:01:24;;;;;;;10.43;6.73;;;24.20;64.50;;;;;;3551211;40;20527;-49
2021/05/09 10:03:52;;;;;;;8.33;7.33;;;24.10;64.50;;;;;;3551588;40;20603;-49
2021/05/09 10:06:20;;;;;;;8.63;6.90;;;24.10;64.60;;;;;;3551128;40;20484;-49
2021/05/09 10:08:48;;;;;;;9.43;6.57;;;24.10;64.70;;;;;;3551891;40;20494;-49
2021/05/09 10:11:15;;;;;;;7.80;7.20;;;24.10;64.80;;;;;;3550750;40;20754;-49
2021/05/09 10:13:42;;;;;;;8.60;7.27;;;24.10;64.80;;;;;;3551665;40;20487;-49
2021/05/09 10:16:09;;;;;;;8.07;7.20;;;24.10;64.90;;;;;;3550609;40;20577;-49
2021/05/09 10:18:40;;;;;;;8.40;7.70;;;24.10;65.00;;;;;;3551198;40;20493;-49
2021/05/09 10:21:07;;;;;;;10.20;7.23;;;24.10;65.10;;;;;;3548899;40;20889;-49
2021/05/09 10:23:35;;;;;;;8.03;7.33;;;24.10;65.20;;;;;;3542663;40;20504;-49
2021/05/09 10:26:02;;;;;;;7.23;6.53;;;24.10;65.30;;;;;;3550641;40;20710;-49
2021/05/09 10:28:38;;;;;;;8.02;6.70;;;24.10;65.40;;;;;;3549367;40;20593;-50
2021/05/09 10:31:05;;;;;;;7.43;6.83;;;24.00;65.40;;;;;;3550824;40;20471;-49
2021/05/09 10:33:43;;;;;;;8.00;7.00;;;24.10;65.40;;;;;;3552219;40;20494;-49
2021/05/09 10:36:12;;;;;;;7.87;7.30;;;24.10;65.50;;;;;;3550935;40;20848;-49
2021/05/09 10:39:07;;;;;;;6.60;6.20;;;24.10;65.60;;;;;;3551251;40;20694;-49
2021/05/09 10:41:34;;;;;;;8.32;7.53;;;24.00;65.50;;;;;;3551246;40;20521;-49
2021/05/09 10:44:01;;;;;;;9.57;7.30;;;24.00;65.50;;;;;;3550718;40;20300;-49
2021/05/09 10:47:03;;;;;;;7.67;6.87;;;24.00;65.60;;;;;;3552130;40;20893;-49
2021/05/09 10:49:29;;;;;;;9.90;7.20;;;24.00;65.70;;;;;;3551800;40;20680;-49
2021/05/09 10:51:56;;;;;;;8.77;7.23;;;24.00;65.70;;;;;;3551859;40;20334;-49
2021/05/09 10:54:24;;;;;;;7.80;7.30;;;24.00;65.80;;;;;;3551600;40;20985;-49
2021/05/09 10:56:52;;;;;;;6.83;6.30;;;24.00;65.80;;;;;;3541275;40;20497;-49
2021/05/09 10:59:20;;;;;;;6.73;6.23;;;24.00;65.90;;;;;;3551986;40;20543;-49
2021/05/09 11:02:06;;;;;;;8.53;7.23;;;24.00;65.90;;;;;;3551838;40;20496;-49
2021/05/09 11:04:47;;;;;;;7.23;6.60;;;24.00;66.00;;;;;;3551130;40;20498;-49
2021/05/09 11:07:42;;;;;;;7.77;6.87;;;24.00;66.10;;;;;;3552402;40;20874;-49
2021/05/09 11:10:36;;;;;;;7.23;6.70;;;24.00;66.20;;;;;;3551769;40;20582;-49
2021/05/09 11:13:04;;;;;;;8.17;6.83;;;24.00;66.20;;;;;;3549731;40;20861;-49
2021/05/09 11:15:30;;;;;;;7.83;7.07;;;24.00;66.20;;;;;;3549783;40;20531;-49
2021/05/09 11:17:58;;;;;;;6.70;6.30;;;24.00;66.30;;;;;;3550400;40;20580;-49
2021/05/09 11:20:25;;;;;;;7.47;6.73;;;24.00;66.30;;;;;;3551476;40;20566;-50
2021/05/09 11:22:57;;;;;;;8.88;7.40;;;23.90;66.20;;;;;;3542990;40;20536;-49
2021/05/09 11:25:31;;;;;;;8.65;6.88;;;24.00;66.50;;;;;;3551519;40;20459;-49
2021/05/09 11:27:58;;;;;;;9.13;7.50;;;23.90;66.40;;;;;;3550899;40;20233;-50
2021/05/09 11:30:33;;;;;;;7.10;6.50;;;23.90;66.40;;;;;;3542739;40;20490;-49
2021/05/09 11:33:01;;;;;;;6.97;6.32;;;23.90;66.40;;;;;;3549455;40;20546;-51
2021/05/09 11:35:37;;;;;;;7.53;6.83;;;24.00;66.60;;;;;;3550716;40;20489;-49
2021/05/09 11:38:03;;;;;;;6.90;6.35;;;23.90;66.70;;;;;;3542130;40;20680;-49
2021/05/09 11:40:30;;;;;;;7.07;6.67;;;23.90;66.60;;;;;;3549745;40;20229;-49
2021/05/09 11:42:56;;;;;;;7.07;6.77;;;23.90;66.60;;;;;;3549706;40;20508;-49
2021/05/09 11:45:26;;;;;;;7.80;7.20;;;23.90;66.60;;;;;;3550816;40;20501;-49
2021/05/09 11:47:53;;;;;;;7.10;6.55;;;23.90;66.70;;;;;;3549936;40;20487;-49
2021/05/09 11:50:20;;;;;;;7.63;7.20;;;23.90;66.70;;;;;;3550538;40;20496;-49
2021/05/09 11:52:47;;;;;;;9.53;6.70;;;23.90;66.70;;;;;;3548922;40;20648;-49
2021/05/09 11:55:15;;;;;;;6.65;6.28;;;23.90;66.80;;;;;;3549104;40;20472;-49
2021/05/09 11:57:42;;;;;;;7.27;6.63;;;23.90;66.90;;;;;;3550447;40;20241;-50
2021/05/09 12:00:11;;;;;;;7.47;6.70;;;23.90;66.90;;;;;;3550344;40;20492;-49
2021/05/09 12:02:38;;;;;;;7.10;6.60;;;23.90;66.80;;;;;;3550436;40;20995;-50
2021/05/09 12:05:09;;;;;;;6.97;6.50;;;23.90;66.80;;;;;;3551075;40;20856;-49
2021/05/09 12:07:43;;;;;;;7.17;6.60;;;23.90;66.90;;;;;;3551388;40;20503;-50
2021/05/09 12:10:12;;;;;;;7.40;6.90;;;23.90;66.90;;;;;;3551489;40;20581;-49
2021/05/09 12:12:40;;;;;;;7.57;6.93;;;23.90;67.00;;;;;;3551074;40;20877;-49
2021/05/09 12:15:13;;;;;;;6.93;6.63;;;23.90;66.90;;;;;;3550870;40;20752;-49
2021/05/09 12:17:48;;;;;;;7.27;6.63;;;23.90;67.00;;;;;;3550326;40;20795;-49
2021/05/09 12:20:30;;;;;;;7.40;6.90;;;23.90;67.10;;;;;;3549635;40;20507;-49
2021/05/09 12:23:01;;;;;;;7.23;6.87;;;23.90;67.20;;;;;;3549626;40;20479;-49
2021/05/09 12:25:32;;;;;;;7.73;7.23;;;23.90;67.20;;;;;;3548905;40;20860;-49
2021/05/09 12:28:19;;;;;;;8.43;7.73;;;23.90;67.20;;;;;;3549841;40;20499;-49
2021/05/09 12:30:47;;;;;;;7.83;7.40;;;23.90;67.30;;;;;;3550395;40;20955;-50
2021/05/09 12:33:25;;;;;;;7.17;6.70;;;23.90;67.30;;;;;;3551086;40;20896;-49
2021/05/09 12:35:54;;;;;;;7.30;6.60;;;23.90;67.40;;;;;;3550305;40;20494;-49
2021/05/09 12:38:23;;;;;;;7.63;6.90;;;23.90;67.40;;;;;;3551467;40;20510;-49
2021/05/09 12:41:01;;;;;;;7.33;6.93;;;23.90;67.40;;;;;;3550522;40;20562;-49
2021/05/09 12:43:44;;;;;;;6.47;5.87;;;23.90;67.50;;;;;;3551636;40;20574;-49
2021/05/09 12:46:25;;;;;;;7.55;6.88;;;23.90;67.50;;;;;;3551826;40;20786;-50
2021/05/09 12:48:52;;;;;;;6.60;6.30;;;23.80;67.30;;;;;;3550819;40;20356;-49
2021/05/09 12:51:19;;;;;;;7.10;6.70;;;23.80;67.40;;;;;;3551763;40;20583;-49
2021/05/09 12:53:49;;;;;;;7.33;6.93;;;23.80;67.50;;;;;;3541959;40;20832;-49
2021/05/09 12:56:17;;;;;;;7.37;6.73;;;23.80;67.50;;;;;;3551939;40;20539;-49